createdAt,value
2016-09-08T00:00:57.396Z,0
2016-09-08T00:01:57.717Z,0
2016-09-08T00:02:57.100Z,0
2016-09-08T00:03:57.423Z,0
2016-09-08T00:04:57.475Z,0
2016-09-08T00:05:58.334Z,0
2016-09-08T00:06:57.448Z,0
2016-09-08T00:07:57.749Z,0
2016-09-08T00:08:57.837Z,0
2016-09-08T00:09:59.088Z,0
2016-09-08T00:10:57.523Z,0
2016-09-08T00:11:57.476Z,0
2016-09-08T00:12:57.953Z,0
2016-09-08T00:13:57.181Z,0
2016-09-08T00:14:57.811Z,0
2016-09-08T00:15:57.194Z,0
2016-09-08T00:16:57.826Z,0
2016-09-08T00:17:57.209Z,0
2016-09-08T00:18:57.214Z,0
2016-09-08T00:19:57.865Z,0
2016-09-08T00:20:58.839Z,0
2016-09-08T00:21:57.243Z,0
2016-09-08T00:22:57.557Z,0
2016-09-08T00:23:57.260Z,0
2016-09-08T00:24:57.260Z,0
2016-09-08T00:25:57.581Z,0
2016-09-08T00:26:57.590Z,0
2016-09-08T00:27:57.293Z,0
2016-09-08T00:28:57.290Z,0
2016-09-08T00:29:57.303Z,0
2016-09-08T00:30:57.621Z,0
2016-09-08T00:31:58.664Z,0
2016-09-08T00:32:57.683Z,0
2016-09-08T00:33:57.328Z,0
2016-09-08T00:34:57.653Z,0
2016-09-08T00:35:57.345Z,0
2016-09-08T00:36:57.980Z,0
2016-09-08T00:37:57.672Z,0
2016-09-08T00:38:57.366Z,0
2016-09-08T00:39:57.371Z,0
2016-09-08T00:40:58.987Z,0
2016-09-08T00:41:57.386Z,0
2016-09-08T00:42:58.376Z,0
2016-09-08T00:43:57.722Z,0
2016-09-08T00:44:57.410Z,0
2016-09-08T00:45:57.779Z,0
2016-09-08T00:46:58.056Z,0
2016-09-08T00:47:57.434Z,0
2016-09-08T00:48:57.455Z,0
2016-09-08T00:49:58.079Z,0
2016-09-08T00:50:57.779Z,0
2016-09-08T00:51:58.571Z,0
2016-09-08T00:52:57.793Z,0
2016-09-08T00:53:58.163Z,0
2016-09-08T00:54:58.116Z,0
2016-09-08T00:55:59.480Z,0
2016-09-08T00:56:57.814Z,0
2016-09-08T00:57:57.819Z,0
2016-09-08T00:58:58.144Z,0
2016-09-08T00:59:58.146Z,0
2016-09-08T01:00:57.857Z,0
2016-09-08T01:01:58.165Z,0
2016-09-08T01:02:58.265Z,0
2016-09-08T01:03:57.553Z,0
2016-09-08T01:04:57.873Z,0
2016-09-08T01:05:57.884Z,0
2016-09-08T01:06:59.392Z,0
2016-09-08T01:07:57.270Z,0
2016-09-08T01:08:58.001Z,0
2016-09-08T01:09:58.235Z,0
2016-09-08T01:10:58.238Z,0
2016-09-08T01:11:57.301Z,0
2016-09-08T01:12:58.396Z,0
2016-09-08T01:13:57.627Z,0
2016-09-08T01:14:58.260Z,0
2016-09-08T01:15:58.003Z,0
2016-09-08T01:16:58.281Z,0
2016-09-08T01:17:59.162Z,0
2016-09-08T01:18:57.666Z,0
2016-09-08T01:19:57.984Z,0
2016-09-08T01:20:57.991Z,0
2016-09-08T01:21:57.686Z,0
2016-09-08T01:22:58.010Z,0
2016-09-08T01:23:57.700Z,0
2016-09-08T01:24:57.705Z,0
2016-09-08T01:25:58.026Z,0
2016-09-08T01:26:57.516Z,0
2016-09-08T01:27:58.092Z,0
2016-09-08T01:28:59.148Z,0
2016-09-08T01:29:58.054Z,0
2016-09-08T01:30:58.052Z,0
2016-09-08T01:31:57.755Z,0
2016-09-08T01:32:57.455Z,0
2016-09-08T01:33:58.085Z,0
2016-09-08T01:34:58.461Z,0
2016-09-08T01:35:57.789Z,0
2016-09-08T01:36:58.109Z,0
2016-09-08T01:37:58.116Z,0
2016-09-08T01:38:57.808Z,0
2016-09-08T01:39:59.129Z,0
2016-09-08T01:40:58.451Z,0
2016-09-08T01:41:58.156Z,0
2016-09-08T01:42:57.843Z,0
2016-09-08T01:43:58.168Z,0
2016-09-08T01:44:57.863Z,0
2016-09-08T01:45:57.554Z,0
2016-09-08T01:46:57.876Z,0
2016-09-08T01:47:57.876Z,0
2016-09-08T01:48:57.623Z,0
2016-09-08T01:49:57.898Z,0
2016-09-08T01:50:58.918Z,0
2016-09-08T01:51:58.243Z,0
2016-09-08T01:52:58.542Z,0
2016-09-08T01:53:57.922Z,0
2016-09-08T01:54:58.241Z,0
2016-09-08T01:55:57.944Z,0
2016-09-08T01:56:57.632Z,0
2016-09-08T01:57:58.269Z,0
2016-09-08T01:58:58.283Z,0
2016-09-08T01:59:58.283Z,0
2016-09-08T02:00:58.604Z,0
2016-09-08T02:01:58.545Z,0
2016-09-08T02:02:58.307Z,0
2016-09-08T02:04:00.015Z,0
2016-09-08T02:04:58.010Z,0
2016-09-08T02:05:58.015Z,0
2016-09-08T02:06:58.019Z,0
2016-09-08T02:07:58.337Z,0
2016-09-08T02:08:58.347Z,0
2016-09-08T02:09:58.403Z,0
2016-09-08T02:10:58.676Z,0
2016-09-08T02:11:57.739Z,0
2016-09-08T02:12:58.116Z,0
2016-09-08T02:13:58.378Z,0
2016-09-08T02:14:59.429Z,0
2016-09-08T02:15:58.444Z,0
2016-09-08T02:16:58.650Z,0
2016-09-08T02:17:58.411Z,0
2016-09-08T02:18:58.109Z,0
2016-09-08T02:19:58.429Z,0
2016-09-08T02:20:58.435Z,0
2016-09-08T02:21:58.128Z,0
2016-09-08T02:22:58.812Z,0
2016-09-08T02:23:58.772Z,0
2016-09-08T02:24:58.152Z,0
2016-09-08T02:25:59.926Z,0
2016-09-08T02:26:58.792Z,0
2016-09-08T02:27:58.374Z,0
2016-09-08T02:28:58.494Z,0
2016-09-08T02:29:58.501Z,0
2016-09-08T02:30:58.202Z,0
2016-09-08T02:31:58.204Z,0
2016-09-08T02:32:58.210Z,0
2016-09-08T02:33:58.220Z,0
2016-09-08T02:34:58.533Z,0
2016-09-08T02:35:57.918Z,0
2016-09-08T02:36:59.752Z,0
2016-09-08T02:37:58.872Z,0
2016-09-08T02:38:58.662Z,0
2016-09-08T02:39:58.265Z,0
2016-09-08T02:40:58.269Z,0
2016-09-08T02:41:58.587Z,0
2016-09-08T02:42:58.384Z,0
2016-09-08T02:43:58.927Z,0
2016-09-08T02:44:58.925Z,0
2016-09-08T02:45:58.930Z,0
2016-09-08T02:46:58.628Z,0
2016-09-08T02:48:00.088Z,0
2016-09-08T02:48:58.325Z,0
2016-09-08T02:49:58.649Z,0
2016-09-08T02:50:58.657Z,0
2016-09-08T02:51:58.980Z,0
2016-09-08T02:52:58.671Z,0
2016-09-08T02:53:58.367Z,0
2016-09-08T02:54:58.685Z,0
2016-09-08T02:55:58.382Z,0
2016-09-08T02:56:58.388Z,0
2016-09-08T02:57:58.721Z,0
2016-09-08T02:58:59.251Z,0
2016-09-08T02:59:58.407Z,0
2016-09-08T03:00:59.049Z,0
2016-09-08T03:01:59.053Z,0
2016-09-08T03:02:59.749Z,0
2016-09-08T03:03:58.444Z,0
2016-09-08T03:04:59.072Z,0
2016-09-08T03:05:58.769Z,0
2016-09-08T03:06:58.776Z,0
2016-09-08T03:07:58.476Z,0
2016-09-08T03:08:58.788Z,0
2016-09-08T03:09:59.799Z,0
2016-09-08T03:10:58.798Z,0
2016-09-08T03:11:58.702Z,0
2016-09-08T03:13:08.772Z,0
2016-09-08T03:13:59.490Z,0
2016-09-08T03:14:58.524Z,0
2016-09-08T03:15:59.205Z,0
2016-09-08T03:16:58.849Z,0
2016-09-08T03:17:58.855Z,0
2016-09-08T03:18:58.547Z,0
2016-09-08T03:19:58.922Z,0
2016-09-08T03:20:58.969Z,0
2016-09-08T03:21:59.196Z,0
2016-09-08T03:22:58.895Z,0
2016-09-08T03:23:59.263Z,0
2016-09-08T03:24:59.863Z,0
2016-09-08T03:25:58.288Z,0
2016-09-08T03:26:59.240Z,0
2016-09-08T03:27:59.026Z,0
2016-09-08T03:28:58.629Z,0
2016-09-08T03:29:58.948Z,0
2016-09-08T03:30:58.959Z,0
2016-09-08T03:31:59.273Z,0
2016-09-08T03:32:58.965Z,0
2016-09-08T03:33:58.976Z,0
2016-09-08T03:34:58.668Z,0
2016-09-08T03:35:59.482Z,0
2016-09-08T03:36:58.692Z,0
2016-09-08T03:37:58.743Z,0
2016-09-08T03:38:59.325Z,0
2016-09-08T03:39:59.722Z,0
2016-09-08T03:40:59.032Z,0
2016-09-08T03:41:59.133Z,0
2016-09-08T03:42:59.042Z,0
2016-09-08T03:43:58.732Z,0
2016-09-08T03:45:00.421Z,0
2016-09-08T03:45:58.751Z,0
2016-09-08T03:46:59.220Z,0
2016-09-08T03:47:59.401Z,0
2016-09-08T03:48:59.092Z,0
2016-09-08T03:49:59.096Z,0
2016-09-08T03:50:58.475Z,0
2016-09-08T03:51:59.127Z,0
2016-09-08T03:52:59.112Z,0
2016-09-08T03:53:59.438Z,0
2016-09-08T03:54:59.131Z,0
2016-09-08T03:55:59.940Z,0
2016-09-08T03:56:59.145Z,0
2016-09-08T03:57:59.357Z,0
2016-09-08T03:58:59.478Z,0
2016-09-08T04:00:00.138Z,0
2016-09-08T04:00:58.868Z,0
2016-09-08T04:01:59.494Z,0
2016-09-08T04:02:59.190Z,0
2016-09-08T04:03:58.885Z,0
2016-09-08T04:04:59.255Z,0
2016-09-08T04:05:59.216Z,0
2016-09-08T04:07:00.444Z,0
2016-09-08T04:07:59.229Z,0
2016-09-08T04:08:59.435Z,0
2016-09-08T04:09:58.934Z,0
2016-09-08T04:11:00.721Z,0
2016-09-08T04:11:59.311Z,0
2016-09-08T04:12:59.627Z,0
2016-09-08T04:13:58.961Z,0
2016-09-08T04:14:59.279Z,0
2016-09-08T04:15:59.604Z,0
2016-09-08T04:16:59.295Z,0
2016-09-08T04:17:59.350Z,0
2016-09-08T04:18:59.309Z,0
2016-09-08T04:19:58.999Z,0
2016-09-08T04:20:59.637Z,0
2016-09-08T04:22:00.185Z,0
2016-09-08T04:22:59.378Z,0
2016-09-08T04:23:59.665Z,0
2016-09-08T04:24:59.040Z,0
2016-09-08T04:25:59.360Z,4
2016-09-08T04:26:59.366Z,4
2016-09-08T04:27:59.377Z,0
2016-09-08T04:28:59.386Z,0
2016-09-08T04:29:59.079Z,4
2016-09-08T04:30:59.407Z,0
2016-09-08T04:31:59.403Z,4
2016-09-08T04:33:00.637Z,4
2016-09-08T04:33:59.421Z,4
2016-09-08T04:34:59.115Z,8
2016-09-08T04:35:59.430Z,8
2016-09-08T04:36:58.816Z,4
2016-09-08T04:37:59.446Z,8
2016-09-08T04:38:59.147Z,8
2016-09-08T04:39:59.468Z,12
2016-09-08T04:40:59.784Z,12
2016-09-08T04:41:59.477Z,12
2016-09-08T04:42:59.535Z,16
2016-09-08T04:44:00.231Z,20
2016-09-08T04:44:59.501Z,20
2016-09-08T04:45:59.196Z,24
2016-09-08T04:46:59.511Z,24
2016-09-08T04:47:59.523Z,32
2016-09-08T04:48:59.217Z,32
2016-09-08T04:49:59.851Z,36
2016-09-08T04:50:59.605Z,40
2016-09-08T04:51:59.240Z,44
2016-09-08T04:53:00.237Z,48
2016-09-08T04:53:59.567Z,52
2016-09-08T04:55:00.327Z,56
2016-09-08T04:55:58.959Z,60
2016-09-08T04:56:58.963Z,68
2016-09-08T04:57:59.280Z,72
2016-09-08T04:58:59.610Z,76
2016-09-08T04:59:59.609Z,84
2016-09-08T05:00:59.308Z,92
2016-09-08T05:01:59.318Z,96
2016-09-08T05:02:59.322Z,104
2016-09-08T05:03:59.641Z,112
2016-09-08T05:04:59.388Z,120
2016-09-08T05:05:59.644Z,124
2016-09-08T05:06:59.661Z,136
2016-09-08T05:07:59.671Z,140
2016-09-08T05:08:59.993Z,152
2016-09-08T05:09:59.687Z,160
2016-09-08T05:10:59.382Z,172
2016-09-08T05:11:59.705Z,184
2016-09-08T05:12:59.724Z,192
2016-09-08T05:13:59.724Z,204
2016-09-08T05:14:59.410Z,212
2016-09-08T05:15:59.729Z,228
2016-09-08T05:17:00.155Z,236
2016-09-08T05:17:59.428Z,248
2016-09-08T05:18:59.179Z,272
2016-09-08T05:19:59.760Z,292
2016-09-08T05:20:59.772Z,304
2016-09-08T05:21:59.473Z,320
2016-09-08T05:23:00.099Z,332
2016-09-08T05:23:59.840Z,348
2016-09-08T05:24:59.485Z,368
2016-09-08T05:25:59.544Z,388
2016-09-08T05:26:59.809Z,400
2016-09-08T05:27:59.968Z,412
2016-09-08T05:28:59.879Z,428
2016-09-08T05:30:01.066Z,436
2016-09-08T05:30:59.842Z,452
2016-09-08T05:31:59.940Z,464
2016-09-08T05:32:59.243Z,480
2016-09-08T05:33:59.549Z,496
2016-09-08T05:34:59.563Z,512
2016-09-08T05:35:59.566Z,520
2016-09-08T05:36:59.591Z,536
2016-09-08T05:37:59.895Z,544
2016-09-08T05:39:00.223Z,560
2016-09-08T05:40:00.876Z,572
2016-09-08T05:41:00.916Z,584
2016-09-08T05:42:00.240Z,596
2016-09-08T05:43:00.293Z,612
2016-09-08T05:44:00.254Z,628
2016-09-08T05:44:59.634Z,636
2016-09-08T05:45:59.956Z,648
2016-09-08T05:46:59.961Z,664
2016-09-08T05:47:59.969Z,672
2016-09-08T05:49:00.026Z,692
2016-09-08T05:50:00.294Z,728
2016-09-08T05:50:59.677Z,880
2016-09-08T05:52:00.333Z,984
2016-09-08T05:52:59.696Z,952
2016-09-08T05:54:00.012Z,992
2016-09-08T05:55:00.330Z,1052
2016-09-08T05:56:00.031Z,1100
2016-09-08T05:57:00.035Z,1004
2016-09-08T05:57:59.731Z,1052
2016-09-08T05:59:00.360Z,956
2016-09-08T05:59:59.745Z,1492
2016-09-08T06:01:00.067Z,1320
2016-09-08T06:01:59.760Z,1064
2016-09-08T06:03:00.679Z,956
2016-09-08T06:04:00.149Z,1172
2016-09-08T06:05:01.992Z,1416
2016-09-08T06:06:00.422Z,2084
2016-09-08T06:06:59.802Z,1132
2016-09-08T06:07:59.494Z,1032
2016-09-08T06:09:00.127Z,984
2016-09-08T06:09:59.820Z,1032
2016-09-08T06:10:59.829Z,1036
2016-09-08T06:12:00.465Z,1132
2016-09-08T06:13:14.734Z,1088
2016-09-08T06:14:00.350Z,1220
2016-09-08T06:15:00.484Z,1656
2016-09-08T06:16:01.427Z,2096
2016-09-08T06:17:00.184Z,1684
2016-09-08T06:18:00.637Z,1384
2016-09-08T06:18:59.897Z,1280
2016-09-08T06:19:59.901Z,2004
2016-09-08T06:21:00.534Z,2520
2016-09-08T06:22:00.224Z,1796
2016-09-08T06:23:00.544Z,2660
2016-09-08T06:24:00.297Z,2004
2016-09-08T06:25:00.563Z,1592
2016-09-08T06:25:59.943Z,2492
2016-09-08T06:27:01.461Z,2124
2016-09-08T06:27:59.954Z,1564
2016-09-08T06:29:00.638Z,1468
2016-09-08T06:30:00.333Z,1616
2016-09-08T06:30:59.979Z,1704
2016-09-08T06:32:00.613Z,3104
2016-09-08T06:33:00.051Z,4896
2016-09-08T06:34:00.308Z,3832
2016-09-08T06:35:00.632Z,2336
2016-09-08T06:35:59.702Z,2236
2016-09-08T06:37:00.338Z,3820
2016-09-08T06:38:01.145Z,4316
2016-09-08T06:39:00.662Z,8016
2016-09-08T06:40:00.356Z,11072
2016-09-08T06:41:00.376Z,12864
2016-09-08T06:42:00.691Z,13344
2016-09-08T06:43:14.950Z,12928
2016-09-08T06:44:00.394Z,12484
2016-09-08T06:45:00.087Z,9704
2016-09-08T06:46:00.093Z,4516
2016-09-08T06:47:00.419Z,1560
2016-09-08T06:48:00.429Z,1272
2016-09-08T06:49:01.087Z,1136
2016-09-08T06:50:00.453Z,1108
2016-09-08T06:51:02.428Z,1108
2016-09-08T06:52:00.779Z,1116
2016-09-08T06:53:00.784Z,1112
2016-09-08T06:54:00.165Z,1120
2016-09-08T06:55:00.484Z,1116
2016-09-08T06:56:00.185Z,1120
2016-09-08T06:56:59.873Z,1120
2016-09-08T06:58:00.574Z,1116
2016-09-08T06:59:00.203Z,1120
2016-09-08T07:00:00.899Z,1120
2016-09-08T07:00:59.910Z,1116
2016-09-08T07:02:02.803Z,1120
2016-09-08T07:03:00.603Z,1116
2016-09-08T07:04:00.874Z,1116
2016-09-08T07:05:00.723Z,1112
2016-09-08T07:06:00.679Z,1112
2016-09-08T07:07:00.637Z,1112
2016-09-08T07:08:00.603Z,1112
2016-09-08T07:09:01.546Z,1116
2016-09-08T07:10:00.768Z,1116
2016-09-08T07:10:59.993Z,1116
2016-09-08T07:12:00.625Z,1116
2016-09-08T07:13:15.629Z,1112
2016-09-08T07:14:01.147Z,1112
2016-09-08T07:15:00.963Z,1116
2016-09-08T07:16:00.778Z,1124
2016-09-08T07:17:00.669Z,1120
2016-09-08T07:18:00.987Z,1112
2016-09-08T07:19:00.846Z,1112
2016-09-08T07:20:00.777Z,1108
2016-09-08T07:21:00.748Z,1104
2016-09-08T07:22:00.396Z,1096
2016-09-08T07:23:01.028Z,1092
2016-09-08T07:24:00.466Z,1092
2016-09-08T07:25:01.557Z,1092
2016-09-08T07:26:01.142Z,1084
2016-09-08T07:27:01.390Z,1088
2016-09-08T07:28:01.065Z,1088
2016-09-08T07:29:00.765Z,1080
2016-09-08T07:30:00.943Z,1084
2016-09-08T07:31:00.149Z,1076
2016-09-08T07:32:00.887Z,1076
2016-09-08T07:33:00.532Z,1076
2016-09-08T07:34:02.353Z,1076
2016-09-08T07:35:00.642Z,1072
2016-09-08T07:36:00.913Z,1072
2016-09-08T07:37:00.902Z,1076
2016-09-08T07:38:00.205Z,1076
2016-09-08T07:39:00.930Z,1072
2016-09-08T07:40:00.896Z,1076
2016-09-08T07:41:01.690Z,1080
2016-09-08T07:42:00.881Z,1084
2016-09-08T07:43:02.268Z,1088
2016-09-08T07:44:00.669Z,1084
2016-09-08T07:45:01.212Z,1088
2016-09-08T07:46:00.750Z,1092
2016-09-08T07:47:00.583Z,1100
2016-09-08T07:48:01.193Z,1104
2016-09-08T07:49:00.911Z,1112
2016-09-08T07:50:02.179Z,1116
2016-09-08T07:51:00.662Z,1116
2016-09-08T07:52:01.041Z,1120
2016-09-08T07:53:00.726Z,1124
2016-09-08T07:54:00.952Z,1124
2016-09-08T07:55:01.029Z,1128
2016-09-08T07:56:00.655Z,1132
2016-09-08T07:57:01.554Z,1128
2016-09-08T07:58:00.858Z,1136
2016-09-08T07:59:03.101Z,1140
2016-09-08T08:00:00.922Z,1148
2016-09-08T08:01:01.363Z,1156
2016-09-08T08:02:00.442Z,1164
2016-09-08T08:03:01.028Z,1164
2016-09-08T08:04:01.199Z,1172
2016-09-08T08:05:01.092Z,1164
2016-09-08T08:06:03.388Z,1172
2016-09-08T08:07:00.830Z,1172
2016-09-08T08:08:01.060Z,1176
2016-09-08T08:09:01.182Z,1188
2016-09-08T08:10:00.446Z,1188
2016-09-08T08:11:01.295Z,1192
2016-09-08T08:12:01.106Z,1192
2016-09-08T08:13:01.025Z,1200
2016-09-08T08:14:01.268Z,1216
2016-09-08T08:15:00.972Z,1228
2016-09-08T08:16:00.866Z,1228
2016-09-08T08:17:01.443Z,1248
2016-09-08T08:18:01.536Z,1268
2016-09-08T08:19:01.614Z,1296
2016-09-08T08:20:03.724Z,1328
2016-09-08T08:21:01.236Z,1368
2016-09-08T08:22:02.163Z,1420
2016-09-08T08:23:01.243Z,1544
2016-09-08T08:24:01.274Z,4244
2016-09-08T08:25:01.650Z,24032
2016-09-08T08:26:01.548Z,41440
2016-09-08T08:27:03.204Z,41408
2016-09-08T08:28:01.676Z,41536
2016-09-08T08:29:01.679Z,42208
2016-09-08T08:30:01.273Z,41280
2016-09-08T08:31:01.554Z,41184
2016-09-08T08:32:01.122Z,41632
2016-09-08T08:33:00.945Z,41312
2016-09-08T08:34:00.939Z,42784
2016-09-08T08:35:01.560Z,41664
2016-09-08T08:36:01.459Z,38368
2016-09-08T08:37:01.098Z,35008
2016-09-08T08:38:01.187Z,34336
2016-09-08T08:39:01.486Z,24256
2016-09-08T08:40:01.533Z,9904
2016-09-08T08:41:03.985Z,3368
2016-09-08T08:42:01.857Z,3156
2016-09-08T08:43:01.138Z,3020
2016-09-08T08:44:00.874Z,2908
2016-09-08T08:45:01.496Z,2808
2016-09-08T08:46:01.505Z,2708
2016-09-08T08:47:01.567Z,2644
2016-09-08T08:48:02.272Z,2612
2016-09-08T08:49:00.950Z,2568
2016-09-08T08:50:01.119Z,2528
2016-09-08T08:51:01.374Z,2500
2016-09-08T08:52:01.515Z,2456
2016-09-08T08:53:02.642Z,2440
2016-09-08T08:54:01.545Z,2420
2016-09-08T08:55:02.487Z,2408
2016-09-08T08:56:01.586Z,2392
2016-09-08T08:57:01.544Z,2392
2016-09-08T08:58:01.637Z,2380
2016-09-08T08:59:01.648Z,2368
2016-09-08T09:00:03.627Z,2336
2016-09-08T09:01:01.597Z,2312
2016-09-08T09:02:01.414Z,2280
2016-09-08T09:03:01.726Z,2236
2016-09-08T09:04:01.438Z,2196
2016-09-08T09:05:02.119Z,2164
2016-09-08T09:06:01.682Z,2136
2016-09-08T09:07:02.581Z,2136
2016-09-08T09:08:01.073Z,2120
2016-09-08T09:09:01.358Z,2116
2016-09-08T09:10:01.513Z,2116
2016-09-08T09:11:01.765Z,2088
2016-09-08T09:12:02.712Z,2092
2016-09-08T09:13:02.060Z,2092
2016-09-08T09:14:01.790Z,2100
2016-09-08T09:15:01.447Z,2092
2016-09-08T09:16:01.040Z,2084
2016-09-08T09:17:01.557Z,2076
2016-09-08T09:18:01.770Z,2072
2016-09-08T09:19:03.525Z,2084
2016-09-08T09:20:01.888Z,2076
2016-09-08T09:21:01.738Z,2080
2016-09-08T09:22:02.278Z,2096
2016-09-08T09:23:01.184Z,2080
2016-09-08T09:24:02.089Z,2064
2016-09-08T09:25:01.831Z,2060
2016-09-08T09:26:03.047Z,2060
2016-09-08T09:27:01.710Z,2072
2016-09-08T09:28:02.347Z,2056
2016-09-08T09:29:01.903Z,2028
2016-09-08T09:30:01.959Z,2020
2016-09-08T09:31:02.351Z,2016
2016-09-08T09:32:01.895Z,2028
2016-09-08T09:33:01.603Z,2024
2016-09-08T09:34:02.525Z,2008
2016-09-08T09:35:02.090Z,2004
2016-09-08T09:36:04.080Z,2000
2016-09-08T09:37:02.019Z,2008
2016-09-08T09:38:02.280Z,1996
2016-09-08T09:39:02.354Z,2000
2016-09-08T09:40:01.902Z,1980
2016-09-08T09:41:02.058Z,1984
2016-09-08T09:42:01.842Z,2004
2016-09-08T09:43:01.757Z,1992
2016-09-08T09:44:02.342Z,1980
2016-09-08T09:45:02.131Z,1972
2016-09-08T09:46:02.108Z,1940
2016-09-08T09:47:02.439Z,1948
2016-09-08T09:48:03.027Z,1948
2016-09-08T09:49:02.451Z,1936
2016-09-08T09:50:01.683Z,1932
2016-09-08T09:51:02.430Z,1924
2016-09-08T09:52:02.065Z,1896
2016-09-08T09:53:02.132Z,1884
2016-09-08T09:54:02.167Z,1884
2016-09-08T09:55:02.291Z,1876
2016-09-08T09:56:01.837Z,1860
2016-09-08T09:57:02.502Z,1864
2016-09-08T09:58:02.722Z,1848
2016-09-08T09:59:02.514Z,1844
2016-09-08T10:00:02.216Z,1800
2016-09-08T10:01:02.244Z,1824
2016-09-08T10:02:02.202Z,1816
2016-09-08T10:03:01.939Z,1812
2016-09-08T10:04:01.727Z,1816
2016-09-08T10:05:02.819Z,1812
2016-09-08T10:06:02.299Z,1856
2016-09-08T10:07:01.972Z,1836
2016-09-08T10:08:02.282Z,1828
2016-09-08T10:09:02.253Z,1840
2016-09-08T10:10:03.216Z,1836
2016-09-08T10:11:02.635Z,1812
2016-09-08T10:12:02.045Z,1820
2016-09-08T10:13:01.789Z,1796
2016-09-08T10:14:02.302Z,1768
2016-09-08T10:15:02.010Z,1764
2016-09-08T10:16:02.443Z,1740
2016-09-08T10:17:02.883Z,1716
2016-09-08T10:18:01.938Z,1716
2016-09-08T10:19:02.102Z,1692
2016-09-08T10:20:02.207Z,1676
2016-09-08T10:21:02.429Z,1676
2016-09-08T10:22:03.422Z,1684
2016-09-08T10:23:02.944Z,1652
2016-09-08T10:24:02.433Z,1684
2016-09-08T10:25:02.911Z,1688
2016-09-08T10:26:02.352Z,1688
2016-09-08T10:27:03.158Z,1668
2016-09-08T10:28:02.795Z,1672
2016-09-08T10:29:02.832Z,1676
2016-09-08T10:30:02.885Z,1688
2016-09-08T10:31:02.082Z,1692
2016-09-08T10:32:04.447Z,1660
2016-09-08T10:33:02.837Z,1648
2016-09-08T10:34:02.453Z,1652
2016-09-08T10:35:02.784Z,1668
2016-09-08T10:36:02.318Z,1656
2016-09-08T10:37:04.201Z,1656
2016-09-08T10:38:02.466Z,1644
2016-09-08T10:39:02.577Z,1652
2016-09-08T10:40:02.594Z,1624
2016-09-08T10:41:02.587Z,1620
2016-09-08T10:42:02.918Z,1628
2016-09-08T10:43:03.132Z,1612
2016-09-08T10:44:02.496Z,1588
2016-09-08T10:45:02.517Z,1604
2016-09-08T10:46:02.150Z,1584
2016-09-08T10:47:03.531Z,1576
2016-09-08T10:48:02.896Z,1560
2016-09-08T10:49:03.007Z,1560
2016-09-08T10:50:02.596Z,1568
2016-09-08T10:51:02.669Z,1552
2016-09-08T10:52:02.624Z,1536
2016-09-08T10:53:02.960Z,1528
2016-09-08T10:54:02.719Z,1524
2016-09-08T10:55:03.137Z,1528
2016-09-08T10:56:02.979Z,1520
2016-09-08T10:57:02.484Z,1480
2016-09-08T10:58:01.997Z,1504
2016-09-08T10:59:03.026Z,1508
2016-09-08T11:00:02.700Z,1464
2016-09-08T11:01:02.632Z,1472
2016-09-08T11:02:03.231Z,1448
2016-09-08T11:03:03.000Z,1440
2016-09-08T11:04:03.043Z,1432
2016-09-08T11:05:02.422Z,1440
2016-09-08T11:06:02.789Z,1408
2016-09-08T11:07:03.089Z,1416
2016-09-08T11:08:02.108Z,1424
2016-09-08T11:09:02.777Z,1404
2016-09-08T11:10:03.202Z,1376
2016-09-08T11:11:02.578Z,1388
2016-09-08T11:12:02.948Z,1364
2016-09-08T11:13:02.931Z,1348
2016-09-08T11:14:03.153Z,1332
2016-09-08T11:15:02.850Z,1336
2016-09-08T11:16:03.026Z,1352
2016-09-08T11:17:02.890Z,1332
2016-09-08T11:18:03.182Z,1320
2016-09-08T11:19:02.851Z,1300
2016-09-08T11:20:02.416Z,1320
2016-09-08T11:21:03.219Z,1316
2016-09-08T11:22:02.922Z,1332
2016-09-08T11:23:02.883Z,1308
2016-09-08T11:24:03.326Z,1468
2016-09-08T11:25:03.639Z,1300
2016-09-08T11:26:02.926Z,1276
2016-09-08T11:27:03.314Z,1312
2016-09-08T11:28:03.193Z,1284
2016-09-08T11:29:02.973Z,1280
2016-09-08T11:30:03.235Z,1280
2016-09-08T11:31:02.856Z,1244
2016-09-08T11:32:02.620Z,1256
2016-09-08T11:33:02.661Z,1260
2016-09-08T11:34:02.606Z,1276
2016-09-08T11:35:03.314Z,1260
2016-09-08T11:36:03.133Z,1284
2016-09-08T11:37:03.073Z,1344
2016-09-08T11:38:03.359Z,1304
2016-09-08T11:39:03.408Z,1268
2016-09-08T11:40:03.405Z,1252
2016-09-08T11:41:05.236Z,1248
2016-09-08T11:42:02.695Z,1232
2016-09-08T11:43:02.779Z,1236
2016-09-08T11:44:03.003Z,1272
2016-09-08T11:45:03.477Z,1276
2016-09-08T11:46:04.752Z,1280
2016-09-08T11:47:03.439Z,1260
2016-09-08T11:48:02.746Z,1296
2016-09-08T11:49:04.349Z,1304
2016-09-08T11:50:02.820Z,952
2016-09-08T11:51:02.917Z,1284
2016-09-08T11:52:03.181Z,1284
2016-09-08T11:53:03.445Z,1320
2016-09-08T11:54:03.484Z,1312
2016-09-08T11:55:03.207Z,1364
2016-09-08T11:56:02.843Z,1432
2016-09-08T11:57:03.650Z,1436
2016-09-08T11:58:03.629Z,1400
2016-09-08T11:59:03.529Z,1400
2016-09-08T12:00:03.592Z,1336
2016-09-08T12:01:03.074Z,1352
2016-09-08T12:02:03.254Z,1344
2016-09-08T12:03:03.241Z,1396
2016-09-08T12:04:03.241Z,1456
2016-09-08T12:05:03.195Z,1368
2016-09-08T12:06:02.969Z,1288
2016-09-08T12:07:03.308Z,1284
2016-09-08T12:08:02.967Z,1276
2016-09-08T12:09:03.705Z,1224
2016-09-08T12:10:03.644Z,1208
2016-09-08T12:11:03.440Z,1212
2016-09-08T12:12:03.281Z,1240
2016-09-08T12:13:04.779Z,1180
2016-09-08T12:14:03.564Z,1208
2016-09-08T12:15:03.707Z,1160
2016-09-08T12:16:03.598Z,1176
2016-09-08T12:17:03.397Z,972
2016-09-08T12:18:02.893Z,996
2016-09-08T12:19:03.402Z,1032
2016-09-08T12:20:03.048Z,1160
2016-09-08T12:21:04.075Z,1184
2016-09-08T12:22:03.841Z,1452
2016-09-08T12:23:03.060Z,1244
2016-09-08T12:24:03.957Z,1344
2016-09-08T12:25:03.613Z,1428
2016-09-08T12:26:03.403Z,1412
2016-09-08T12:27:03.916Z,1452
2016-09-08T12:28:03.632Z,1480
2016-09-08T12:29:03.795Z,1384
2016-09-08T12:30:03.340Z,1300
2016-09-08T12:31:03.531Z,1220
2016-09-08T12:32:03.110Z,1168
2016-09-08T12:33:03.433Z,972
2016-09-08T12:34:03.924Z,936
2016-09-08T12:35:03.514Z,972
2016-09-08T12:36:03.422Z,888
2016-09-08T12:37:03.873Z,860
2016-09-08T12:38:03.231Z,900
2016-09-08T12:39:03.788Z,832
2016-09-08T12:40:03.465Z,1032
2016-09-08T12:41:03.901Z,1036
2016-09-08T12:42:02.860Z,952
2016-09-08T12:43:03.928Z,996
2016-09-08T12:44:04.440Z,1008
2016-09-08T12:45:03.541Z,1008
2016-09-08T12:46:03.504Z,1028
2016-09-08T12:47:03.605Z,1004
2016-09-08T12:48:03.294Z,968
2016-09-08T12:49:03.149Z,952
2016-09-08T12:50:02.900Z,988
2016-09-08T12:51:03.649Z,996
2016-09-08T12:52:03.690Z,1000
2016-09-08T12:53:03.634Z,988
2016-09-08T12:54:03.884Z,992
2016-09-08T12:55:03.858Z,1000
2016-09-08T12:56:04.277Z,1008
2016-09-08T12:57:03.714Z,984
2016-09-08T12:58:04.150Z,964
2016-09-08T12:59:03.667Z,948
2016-09-08T13:00:04.238Z,964
2016-09-08T13:01:04.108Z,972
2016-09-08T13:02:05.258Z,956
2016-09-08T13:03:04.363Z,948
2016-09-08T13:04:03.775Z,968
2016-09-08T13:05:03.861Z,960
2016-09-08T13:06:03.813Z,860
2016-09-08T13:07:04.047Z,944
2016-09-08T13:08:03.868Z,916
2016-09-08T13:09:03.382Z,888
2016-09-08T13:10:03.857Z,868
2016-09-08T13:11:04.039Z,896
2016-09-08T13:12:03.710Z,912
2016-09-08T13:13:03.418Z,908
2016-09-08T13:14:03.865Z,872
2016-09-08T13:15:03.906Z,836
2016-09-08T13:16:03.926Z,800
2016-09-08T13:17:04.254Z,800
2016-09-08T13:18:03.839Z,796
2016-09-08T13:19:04.184Z,788
2016-09-08T13:20:03.997Z,760
2016-09-08T13:21:03.827Z,764
2016-09-08T13:22:03.980Z,772
2016-09-08T13:23:03.869Z,752
2016-09-08T13:24:03.746Z,780
2016-09-08T13:25:03.538Z,776
2016-09-08T13:26:04.156Z,764
2016-09-08T13:27:04.503Z,752
2016-09-08T13:28:03.926Z,760
2016-09-08T13:29:03.836Z,776
2016-09-08T13:30:04.195Z,756
2016-09-08T13:31:04.297Z,756
2016-09-08T13:32:04.145Z,756
2016-09-08T13:33:04.505Z,736
2016-09-08T13:34:03.662Z,744
2016-09-08T13:35:03.891Z,740
2016-09-08T13:36:04.373Z,744
2016-09-08T13:37:04.229Z,736
2016-09-08T13:38:03.620Z,740
2016-09-08T13:39:04.168Z,736
2016-09-08T13:40:04.099Z,740
2016-09-08T13:41:04.152Z,740
2016-09-08T13:42:04.524Z,740
2016-09-08T13:43:18.468Z,732
2016-09-08T13:44:04.196Z,736
2016-09-08T13:45:03.674Z,732
2016-09-08T13:46:04.135Z,724
2016-09-08T13:47:04.036Z,708
2016-09-08T13:48:04.424Z,708
2016-09-08T13:49:03.990Z,716
2016-09-08T13:50:03.965Z,704
2016-09-08T13:51:04.558Z,704
2016-09-08T13:52:04.451Z,684